Time;durP1;ratioP1;P1;durP2;ratioP2;P2;SDS_P1;SDS_P2;PMS_P1;PMS_P2;Temp;Humidity;BMP_temperature;BMP_pressure;BME280_temperature;BME280_humidity;BME280_pressure;Samples;Min_cycle;Max_cycle;Signal;HPM_P1;HPM_P2
2021/03/06 00:00:15;;;;;;;2.53;1.33;;;;;;;;;;5053311;28;20033;-74
2021/03/06 00:02:40;;;;;;;2.03;0.98;;;;;;;;;;5035108;28;20036;-73
2021/03/06 00:05:07;;;;;;;2.47;1.20;;;;;;;;;;5055591;28;20568;-74
2021/03/06 00:07:32;;;;;;;3.03;1.27;;;;;;;;;;5062480;28;20020;-73
2021/03/06 00:09:57;;;;;;;3.13;1.40;;;;;;;;;;5053119;28;20048;-73
2021/03/06 00:12:23;;;;;;;3.47;1.37;;;;;;;;;;5036240;28;20043;-73
2021/03/06 00:14:48;;;;;;;2.00;1.10;;;;;;;;;;5053162;28;20492;-73
2021/03/06 00:17:13;;;;;;;2.43;1.23;;;;;;;;;;5062462;28;20467;-73
2021/03/06 00:19:39;;;;;;;2.10;1.00;;;;;;;;;;5071769;28;20067;-73
2021/03/06 00:22:04;;;;;;;2.00;1.03;;;;;;;;;;5071989;28;20032;-73
2021/03/06 00:24:29;;;;;;;2.37;1.07;;;;;;;;;;5055213;28;20074;-73
2021/03/06 00:26:56;;;;;;;2.40;1.17;;;;;;;;;;5059737;28;20083;-73
2021/03/06 00:29:21;;;;;;;2.50;1.20;;;;;;;;;;5051636;28;20086;-73
2021/03/06 00:31:46;;;;;;;1.57;0.97;;;;;;;;;;5048466;28;20045;-73
2021/03/06 00:34:12;;;;;;;2.83;1.40;;;;;;;;;;5048502;28;20515;-74
2021/03/06 00:36:37;;;;;;;2.57;1.30;;;;;;;;;;5050621;28;20513;-73
2021/03/06 00:39:04;;;;;;;2.37;1.30;;;;;;;;;;5054757;28;20388;-74
2021/03/06 00:41:29;;;;;;;;;;;;;;;;;;5055374;28;20032;-72
2021/03/06 00:43:54;;;;;;;2.43;1.00;;;;;;;;;;5072842;28;19915;-73
2021/03/06 00:46:19;;;;;;;2.63;1.30;;;;;;;;;;5044810;28;20076;-74
2021/03/06 00:48:45;;;;;;;2.57;1.10;;;;;;;;;;5048034;28;20057;-73
2021/03/06 00:51:10;;;;;;;2.03;1.20;;;;;;;;;;5059618;28;20119;-74
2021/03/06 00:53:36;;;;;;;2.47;1.20;;;;;;;;;;5073121;28;20028;-73
2021/03/06 00:56:01;;;;;;;2.03;1.10;;;;;;;;;;5056560;28;20029;-74
2021/03/06 00:58:26;;;;;;;2.83;1.30;;;;;;;;;;5032936;28;20030;-74
2021/03/06 01:00:52;;;;;;;2.37;1.20;;;;;;;;;;5032673;28;20496;-73
2021/03/06 01:03:17;;;;;;;1.70;1.00;;;;;;;;;;5052031;28;20407;-73
2021/03/06 01:05:43;;;;;;;2.50;1.30;;;;;;;;;;5071460;28;20036;-74
2021/03/06 01:08:08;;;;;;;2.20;1.10;;;;;;;;;;5053001;28;20056;-73
2021/03/06 01:10:35;;;;;;;2.77;1.07;;;;;;;;;;5068021;28;20048;-74
2021/03/06 01:13:01;;;;;;;2.45;1.30;;;;;;;;;;5052505;28;20057;-73
2021/03/06 01:15:26;;;;;;;2.67;1.33;;;;;;;;;;5040496;28;20091;-73
2021/03/06 01:17:51;;;;;;;3.90;1.30;;;;;;;;;;5053639;28;20068;-74
2021/03/06 01:20:17;;;;;;;2.80;1.27;;;;;;;;;;5051248;28;20031;-73
2021/03/06 01:22:42;;;;;;;2.20;1.23;;;;;;;;;;5067953;28;20514;-73
2021/03/06 01:25:08;;;;;;;1.60;1.00;;;;;;;;;;5052366;28;20106;-73
2021/03/06 01:27:33;;;;;;;1.83;1.00;;;;;;;;;;5067987;28;20036;-73
2021/03/06 01:29:59;;;;;;;2.33;1.10;;;;;;;;;;5071180;28;20043;-74
2021/03/06 01:32:24;;;;;;;3.00;1.07;;;;;;;;;;5072888;28;20068;-73
2021/03/06 01:34:50;;;;;;;2.47;1.00;;;;;;;;;;5071241;28;20067;-73
2021/03/06 01:37:15;;;;;;;2.30;1.17;;;;;;;;;;5040479;28;20038;-74
2021/03/06 01:39:40;;;;;;;2.80;1.20;;;;;;;;;;5069365;28;20444;-74
2021/03/06 01:42:07;;;;;;;2.70;1.10;;;;;;;;;;5076415;28;20060;-73
2021/03/06 01:44:33;;;;;;;1.98;1.25;;;;;;;;;;5058134;28;20052;-73
2021/03/06 01:46:59;;;;;;;2.50;1.10;;;;;;;;;;5065088;28;20488;-73
2021/03/06 01:49:25;;;;;;;2.42;1.25;;;;;;;;;;5054486;28;20025;-73
2021/03/06 01:51:50;;;;;;;2.50;1.20;;;;;;;;;;5074825;28;20052;-73
2021/03/06 01:54:15;;;;;;;2.00;1.20;;;;;;;;;;5074530;28;20678;-73
2021/03/06 01:56:40;;;;;;;2.30;1.10;;;;;;;;;;5046411;28;20120;-73
2021/03/06 01:59:06;;;;;;;2.07;1.07;;;;;;;;;;5017849;28;20065;-73
2021/03/06 02:01:31;;;;;;;2.03;1.00;;;;;;;;;;5029407;28;20116;-74
2021/03/06 02:03:57;;;;;;;1.97;1.10;;;;;;;;;;5066502;28;20033;-73
2021/03/06 02:06:23;;;;;;;2.60;1.00;;;;;;;;;;5045692;28;20043;-73
2021/03/06 02:08:48;;;;;;;2.17;1.10;;;;;;;;;;5057563;28;20028;-73
2021/03/06 02:11:16;;;;;;;2.40;1.13;;;;;;;;;;5075330;28;20056;-73
2021/03/06 02:13:55;;;;;;;1.90;0.80;;;;;;;;;;5071611;28;21143;-74
2021/03/06 02:16:41;;;;;;;2.00;1.27;;;;;;;;;;5045908;28;20041;-74
2021/03/06 02:19:44;;;;;;;1.80;1.00;;;;;;;;;;5034570;28;20480;-73
2021/03/06 02:22:46;;;;;;;2.10;1.10;;;;;;;;;;5035227;28;20091;-73
2021/03/06 02:25:32;;;;;;;1.48;1.00;;;;;;;;;;5038516;28;20435;-74
2021/03/06 02:28:06;;;;;;;2.05;1.05;;;;;;;;;;5074195;28;20479;-73
2021/03/06 02:30:31;;;;;;;2.63;1.10;;;;;;;;;;5073944;28;20103;-73
2021/03/06 02:32:56;;;;;;;2.00;1.13;;;;;;;;;;5075264;28;20533;-74
2021/03/06 02:35:23;;;;;;;2.27;1.27;;;;;;;;;;5053996;28;20486;-74
2021/03/06 02:38:16;;;;;;;1.42;0.85;;;;;;;;;;5053697;28;20048;-73
2021/03/06 02:40:41;;;;;;;2.33;1.13;;;;;;;;;;5056473;28;20036;-73
2021/03/06 02:43:09;;;;;;;2.13;1.20;;;;;;;;;;5073549;28;20073;-74
2021/03/06 02:45:34;;;;;;;2.72;1.20;;;;;;;;;;5069022;28;20029;-74
2021/03/06 02:48:00;;;;;;;1.87;1.17;;;;;;;;;;5052490;28;20040;-73
2021/03/06 02:50:25;;;;;;;2.23;1.13;;;;;;;;;;5050056;28;20076;-74
2021/03/06 02:52:50;;;;;;;1.93;1.13;;;;;;;;;;5034755;28;20076;-73
2021/03/06 02:55:16;;;;;;;1.80;1.00;;;;;;;;;;5053144;28;20091;-73
2021/03/06 02:57:58;;;;;;;1.67;0.90;;;;;;;;;;5074643;28;20176;-73
2021/03/06 03:00:42;;;;;;;1.98;1.15;;;;;;;;;;5056345;28;20044;-74
2021/03/06 03:03:10;;;;;;;2.38;1.05;;;;;;;;;;5042047;28;20033;-73
2021/03/06 03:05:54;;;;;;;2.33;1.30;;;;;;;;;;5062863;28;20042;-74
2021/03/06 03:08:24;;;;;;;2.30;1.10;;;;;;;;;;5072949;28;20111;-74
2021/03/06 03:10:55;;;;;;;2.17;1.05;;;;;;;;;;5072731;28;20036;-73
2021/03/06 03:13:22;;;;;;;2.08;1.13;;;;;;;;;;5073021;28;20491;-73
2021/03/06 03:15:52;;;;;;;2.20;1.10;;;;;;;;;;5047376;28;20034;-73
2021/03/06 03:18:20;;;;;;;1.35;1.02;;;;;;;;;;5070384;28;20531;-74
2021/03/06 03:20:53;;;;;;;1.92;1.20;;;;;;;;;;5056672;28;20040;-73
2021/03/06 03:23:21;;;;;;;1.60;1.00;;;;;;;;;;5055722;28;20093;-73
2021/03/06 03:25:47;;;;;;;2.50;1.30;;;;;;;;;;5058685;28;20033;-73
2021/03/06 03:28:12;;;;;;;2.37;1.20;;;;;;;;;;5055975;28;20227;-73
2021/03/06 03:30:38;;;;;;;2.77;1.10;;;;;;;;;;5073846;28;20110;-73
2021/03/06 03:33:13;;;;;;;2.20;0.93;;;;;;;;;;5037581;28;20060;-73
2021/03/06 03:35:39;;;;;;;1.90;1.05;;;;;;;;;;5040360;28;20093;-74
2021/03/06 03:38:05;;;;;;;1.45;0.90;;;;;;;;;;5055836;28;20036;-73
2021/03/06 03:40:30;;;;;;;2.37;1.30;;;;;;;;;;5038973;28;20399;-73
2021/03/06 03:42:56;;;;;;;2.10;1.13;;;;;;;;;;5055652;28;20038;-73
2021/03/06 03:45:21;;;;;;;1.98;1.13;;;;;;;;;;5054330;28;20060;-73
2021/03/06 03:47:47;;;;;;;2.30;1.30;;;;;;;;;;5052386;28;20068;-73
2021/03/06 03:50:14;;;;;;;2.27;1.20;;;;;;;;;;5053865;28;20085;-73
2021/03/06 03:52:42;;;;;;;1.63;0.95;;;;;;;;;;5055689;28;20032;-73
2021/03/06 03:55:08;;;;;;;1.75;1.02;;;;;;;;;;5055719;28;20107;-73
2021/03/06 03:57:34;;;;;;;2.35;1.20;;;;;;;;;;5049454;28;20068;-73
2021/03/06 04:00:00;;;;;;;2.05;1.10;;;;;;;;;;5031790;28;20025;-73
2021/03/06 04:02:27;;;;;;;1.70;0.98;;;;;;;;;;5039282;28;20032;-74
2021/03/06 04:04:52;;;;;;;2.03;0.98;;;;;;;;;;5072854;28;20033;-73
2021/03/06 04:07:17;;;;;;;1.90;1.00;;;;;;;;;;5035216;28;20124;-73
2021/03/06 04:09:43;;;;;;;1.63;0.93;;;;;;;;;;5035782;28;20061;-74
2021/03/06 04:12:08;;;;;;;1.53;1.07;;;;;;;;;;5058891;28;20194;-73
2021/03/06 04:14:33;;;;;;;1.70;1.00;;;;;;;;;;5053112;28;20040;-73
2021/03/06 04:16:59;;;;;;;1.50;0.90;;;;;;;;;;5046515;28;20136;-73
2021/03/06 04:19:24;;;;;;;1.97;0.97;;;;;;;;;;5048571;28;20029;-73
2021/03/06 04:21:49;;;;;;;2.30;1.10;;;;;;;;;;5046835;28;20080;-73
2021/03/06 04:24:15;;;;;;;2.03;1.00;;;;;;;;;;5051856;28;20120;-74
2021/03/06 04:26:40;;;;;;;1.90;1.20;;;;;;;;;;5068906;28;20489;-74
2021/03/06 04:29:05;;;;;;;2.00;1.00;;;;;;;;;;5053000;28;20061;-74
2021/03/06 04:31:31;;;;;;;2.07;1.00;;;;;;;;;;5079833;28;20127;-73
2021/03/06 04:33:56;;;;;;;2.03;1.17;;;;;;;;;;5073003;28;20161;-74
2021/03/06 04:36:21;;;;;;;1.67;1.10;;;;;;;;;;5073078;28;20070;-74
2021/03/06 04:38:47;;;;;;;2.50;1.10;;;;;;;;;;5071543;28;20051;-74
2021/03/06 04:41:12;;;;;;;1.40;0.93;;;;;;;;;;5051386;23;20128;-75
2021/03/06 04:43:37;;;;;;;1.80;1.00;;;;;;;;;;5005466;28;20149;-75
2021/03/06 04:46:03;;;;;;;2.73;1.10;;;;;;;;;;5015365;28;20125;-75
2021/03/06 04:48:28;;;;;;;2.07;1.13;;;;;;;;;;5015205;28;20069;-75
2021/03/06 04:50:53;;;;;;;2.27;1.10;;;;;;;;;;5049428;28;20173;-74
2021/03/06 04:53:19;;;;;;;2.40;1.10;;;;;;;;;;5071784;28;20041;-75
2021/03/06 04:55:44;;;;;;;1.80;1.00;;;;;;;;;;5044319;28;20124;-75
2021/03/06 04:58:09;;;;;;;2.30;1.07;;;;;;;;;;5052710;28;20041;-75
2021/03/06 05:00:35;;;;;;;2.57;1.00;;;;;;;;;;5054244;28;20163;-75
2021/03/06 05:03:00;;;;;;;2.40;1.07;;;;;;;;;;5054126;28;20197;-74
2021/03/06 05:05:25;;;;;;;1.77;0.93;;;;;;;;;;5071652;28;20115;-75
2021/03/06 05:07:51;;;;;;;1.67;1.13;;;;;;;;;;5059371;28;20384;-75
2021/03/06 05:10:16;;;;;;;1.80;0.90;;;;;;;;;;5051301;28;20075;-75
2021/03/06 05:12:42;;;;;;;1.73;1.00;;;;;;;;;;5058203;28;20036;-74
2021/03/06 05:15:07;;;;;;;1.37;0.90;;;;;;;;;;5075527;28;20101;-75
2021/03/06 05:17:33;;;;;;;1.50;0.90;;;;;;;;;;5074758;28;20043;-74
2021/03/06 05:19:59;;;;;;;1.77;1.00;;;;;;;;;;5074914;28;20559;-75
2021/03/06 05:22:24;;;;;;;1.58;0.90;;;;;;;;;;5075507;28;20078;-75
2021/03/06 05:24:50;;;;;;;1.83;0.93;;;;;;;;;;5075192;28;20029;-75
2021/03/06 05:27:15;;;;;;;2.00;1.03;;;;;;;;;;5075168;28;20119;-75
2021/03/06 05:29:41;;;;;;;1.70;0.93;;;;;;;;;;5058323;28;20028;-75
2021/03/06 05:32:06;;;;;;;1.50;0.93;;;;;;;;;;5056043;28;20052;-74
2021/03/06 05:34:34;;;;;;;1.63;1.03;;;;;;;;;;5055145;28;20035;-75
2021/03/06 05:37:00;;;;;;;2.45;1.20;;;;;;;;;;5054813;28;20033;-74
2021/03/06 05:39:25;;;;;;;1.63;0.93;;;;;;;;;;5056068;28;20540;-74
2021/03/06 05:41:51;;;;;;;1.57;0.90;;;;;;;;;;5069084;28;20032;-74
2021/03/06 05:44:16;;;;;;;2.10;1.23;;;;;;;;;;5072697;28;20035;-74
2021/03/06 05:46:42;;;;;;;2.17;1.07;;;;;;;;;;5058126;28;20028;-74
2021/03/06 05:49:07;;;;;;;2.00;1.20;;;;;;;;;;5058005;28;20024;-74
2021/03/06 05:51:37;;;;;;;2.97;1.23;;;;;;;;;;5057773;28;20102;-74
2021/03/06 05:54:12;;;;;;;2.28;0.95;;;;;;;;;;5034498;28;20041;-74
2021/03/06 05:56:39;;;;;;;1.60;0.90;;;;;;;;;;5017882;28;20030;-74
2021/03/06 05:59:07;;;;;;;1.60;1.00;;;;;;;;;;5030180;28;20036;-74
2021/03/06 06:01:32;;;;;;;1.50;1.00;;;;;;;;;;5041553;28;20513;-74
2021/03/06 06:04:01;;;;;;;1.73;0.80;;;;;;;;;;5040171;28;20041;-74
2021/03/06 06:06:28;;;;;;;2.08;1.10;;;;;;;;;;5057694;28;20032;-74
2021/03/06 06:08:54;;;;;;;1.73;0.90;;;;;;;;;;5057629;28;20109;-74
2021/03/06 06:11:19;;;;;;;1.40;0.90;;;;;;;;;;5067891;28;20044;-74
2021/03/06 06:13:45;;;;;;;1.90;1.00;;;;;;;;;;5050882;28;20040;-74
2021/03/06 06:16:10;;;;;;;1.97;1.10;;;;;;;;;;5075449;28;20128;-74
2021/03/06 06:18:35;;;;;;;1.40;0.90;;;;;;;;;;5075167;28;20064;-74
2021/03/06 06:21:01;;;;;;;1.70;0.93;;;;;;;;;;5074218;28;20060;-74
2021/03/06 06:23:26;;;;;;;1.83;0.97;;;;;;;;;;5061882;28;20119;-74
2021/03/06 06:25:51;;;;;;;1.57;1.00;;;;;;;;;;5066392;28;20472;-75
2021/03/06 06:28:17;;;;;;;2.50;1.10;;;;;;;;;;5055709;28;20510;-74
2021/03/06 06:30:42;;;;;;;2.03;1.10;;;;;;;;;;5070344;28;20442;-75
2021/03/06 06:33:07;;;;;;;2.30;1.00;;;;;;;;;;5066989;28;20489;-76
2021/03/06 06:35:42;;;;;;;4.47;1.10;;;;;;;;;;5070637;28;20498;-75
2021/03/06 06:38:07;;;;;;;1.52;1.00;;;;;;;;;;5054916;28;20098;-74
2021/03/06 06:40:34;;;;;;;2.27;1.00;;;;;;;;;;5053135;28;20041;-74
2021/03/06 06:43:00;;;;;;;3.25;1.10;;;;;;;;;;5071154;28;20060;-75
2021/03/06 06:45:35;;;;;;;7.60;1.37;;;;;;;;;;5066261;28;20079;-75
2021/03/06 06:48:07;;;;;;;6.82;1.30;;;;;;;;;;5039605;28;20060;-74
2021/03/06 06:50:33;;;;;;;4.43;0.95;;;;;;;;;;5039613;28;20033;-74
2021/03/06 06:52:58;;;;;;;3.10;1.20;;;;;;;;;;5063319;28;20453;-74
2021/03/06 06:55:40;;;;;;;6.37;1.50;;;;;;;;;;5056564;28;20068;-75
2021/03/06 06:58:06;;;;;;;4.53;1.52;;;;;;;;;;5047835;28;20038;-76
2021/03/06 07:00:32;;;;;;;9.13;1.90;;;;;;;;;;5063455;28;20043;-75
2021/03/06 07:02:59;;;;;;;6.38;1.42;;;;;;;;;;5025884;28;20506;-76
2021/03/06 07:05:45;;;;;;;14.38;1.60;;;;;;;;;;5049203;28;20560;-75
2021/03/06 07:08:24;;;;;;;8.75;1.63;;;;;;;;;;5070946;28;20036;-75
2021/03/06 07:10:51;;;;;;;7.72;1.60;;;;;;;;;;5042796;28;20099;-76
2021/03/06 07:13:17;;;;;;;9.18;2.20;;;;;;;;;;5053133;28;20427;-77
2021/03/06 07:15:43;;;;;;;7.07;1.80;;;;;;;;;;5041892;28;20024;-77
2021/03/06 07:18:09;;;;;;;6.43;1.77;;;;;;;;;;5046749;28;20446;-76
2021/03/06 07:20:34;;;;;;;;;;;;;;;;;;5020184;28;20036;-76
2021/03/06 07:23:22;;;;;;;8.40;1.88;;;;;;;;;;5054306;28;20013;-76
2021/03/06 07:25:51;;;;;;;7.75;1.50;;;;;;;;;;5087325;28;20024;-77
2021/03/06 07:28:17;;;;;;;9.93;1.80;;;;;;;;;;5056084;28;20043;-78
2021/03/06 07:30:42;;;;;;;7.30;1.63;;;;;;;;;;5055888;28;20024;-76
2021/03/06 07:33:07;;;;;;;8.97;1.47;;;;;;;;;;5055815;28;20033;-77
2021/03/06 07:35:34;;;;;;;4.47;1.20;;;;;;;;;;5038137;28;20391;-76
2021/03/06 07:38:00;;;;;;;6.70;1.50;;;;;;;;;;5035675;28;20036;-76
2021/03/06 07:40:30;;;;;;;10.15;1.80;;;;;;;;;;5036609;28;20468;-77
2021/03/06 07:42:58;;;;;;;7.38;1.73;;;;;;;;;;5073073;28;20032;-76
2021/03/06 07:45:25;;;;;;;5.00;1.50;;;;;;;;;;5039792;28;20048;-77
2021/03/06 07:48:02;;;;;;;;;;;;;;;;;;5019996;28;20086;-76
2021/03/06 07:50:30;;;;;;;3.80;1.40;;;;;;;;;;5052750;28;19948;-76
2021/03/06 07:52:56;;;;;;;8.98;1.40;;;;;;;;;;5037365;28;20279;-76
2021/03/06 07:55:22;;;;;;;9.48;1.50;;;;;;;;;;5019340;28;20039;-76
2021/03/06 07:58:07;;;;;;;5.88;1.48;;;;;;;;;;5035829;28;20079;-76
2021/03/06 08:00:45;;;;;;;4.93;1.48;;;;;;;;;;5057419;28;20038;-76
2021/03/06 08:03:44;;;;;;;5.60;1.58;;;;;;;;;;5072416;28;20492;-76
2021/03/06 08:06:19;;;;;;;6.70;1.40;;;;;;;;;;5073289;28;20495;-76
2021/03/06 08:08:44;;;;;;;5.13;1.30;;;;;;;;;;5052649;28;20036;-77
2021/03/06 08:11:13;;;;;;;5.40;1.40;;;;;;;;;;5054448;28;20403;-76
2021/03/06 08:13:39;;;;;;;12.85;2.20;;;;;;;;;;5067156;28;20029;-77
2021/03/06 08:16:23;;;;;;;7.95;1.48;;;;;;;;;;5040387;28;20029;-76
2021/03/06 08:18:48;;;;;;;11.05;1.90;;;;;;;;;;5032507;28;20566;-76
2021/03/06 08:21:36;;;;;;;4.70;1.27;;;;;;;;;;5056637;28;20067;-76
2021/03/06 08:24:21;;;;;;;7.13;1.40;;;;;;;;;;5056601;28;20070;-76
2021/03/06 08:26:53;;;;;;;8.00;1.52;;;;;;;;;;5049866;28;20036;-78
2021/03/06 08:29:24;;;;;;;5.25;1.58;;;;;;;;;;5071457;28;20426;-76
2021/03/06 08:31:53;;;;;;;7.45;1.73;;;;;;;;;;5048457;28;20037;-76
2021/03/06 08:34:34;;;;;;;9.55;1.70;;;;;;;;;;5041187;28;20047;-76
2021/03/06 08:40:06;;;;;;;7.93;1.70;;;;;;;;;;5061741;28;20033;-76
2021/03/06 08:42:35;;;;;;;8.10;1.60;;;;;;;;;;5048201;28;20526;-76
2021/03/06 08:45:04;;;;;;;5.38;1.63;;;;;;;;;;5040099;28;20037;-76
2021/03/06 08:47:31;;;;;;;11.90;1.88;;;;;;;;;;5067445;28;20033;-76
2021/03/06 08:49:58;;;;;;;7.93;1.67;;;;;;;;;;5039361;28;20032;-76
2021/03/06 08:52:24;;;;;;;;;;;;;;;;;;5055801;28;20060;-76
2021/03/06 08:54:49;;;;;;;8.00;2.00;;;;;;;;;;5058870;28;19908;-76
2021/03/06 08:57:44;;;;;;;7.13;1.47;;;;;;;;;;5052118;28;20108;-76
2021/03/06 09:00:24;;;;;;;9.60;1.60;;;;;;;;;;5043662;28;20033;-76
2021/03/06 09:02:50;;;;;;;7.53;1.67;;;;;;;;;;5055915;28;20032;-76
2021/03/06 09:05:19;;;;;;;8.17;1.60;;;;;;;;;;5038963;28;20027;-76
2021/03/06 09:07:49;;;;;;;8.07;1.77;;;;;;;;;;5039097;28;20276;-76
2021/03/06 09:10:20;;;;;;;9.25;2.13;;;;;;;;;;5035597;28;20021;-76
2021/03/06 09:12:46;;;;;;;8.80;1.80;;;;;;;;;;5059322;28;20100;-76
2021/03/06 09:15:12;;;;;;;8.23;1.88;;;;;;;;;;5059154;28;20062;-76
2021/03/06 09:17:38;;;;;;;6.97;1.92;;;;;;;;;;5075212;28;20033;-76
2021/03/06 09:20:04;;;;;;;4.47;1.50;;;;;;;;;;5058301;28;20384;-76
2021/03/06 09:22:39;;;;;;;6.18;1.60;;;;;;;;;;5042266;28;20170;-77
2021/03/06 09:25:05;;;;;;;5.63;1.60;;;;;;;;;;5058705;28;20089;-76
2021/03/06 09:27:47;;;;;;;8.60;2.00;;;;;;;;;;5064705;28;20550;-76
2021/03/06 09:30:25;;;;;;;4.55;1.60;;;;;;;;;;5074492;28;20025;-76
2021/03/06 09:32:51;;;;;;;5.88;2.00;;;;;;;;;;5058490;28;20033;-76
2021/03/06 09:35:17;;;;;;;9.53;1.90;;;;;;;;;;5074731;28;20459;-76
2021/03/06 09:37:42;;;;;;;7.03;2.10;;;;;;;;;;5064656;28;20036;-76
2021/03/06 09:40:21;;;;;;;6.60;2.40;;;;;;;;;;5057473;28;20477;-76
2021/03/06 09:42:52;;;;;;;6.53;2.80;;;;;;;;;;5074669;28;20036;-76
2021/03/06 09:45:17;;;;;;;7.38;2.30;;;;;;;;;;5056429;28;20029;-76
2021/03/06 09:47:43;;;;;;;9.20;2.10;;;;;;;;;;5056501;28;20462;-76
2021/03/06 09:50:10;;;;;;;12.90;2.20;;;;;;;;;;5030561;28;20056;-76
2021/03/06 09:52:36;;;;;;;7.57;1.63;;;;;;;;;;5054421;28;20463;-76
2021/03/06 09:55:01;;;;;;;7.07;2.00;;;;;;;;;;5072391;28;20492;-76
2021/03/06 09:57:27;;;;;;;9.37;1.97;;;;;;;;;;5034601;28;20531;-76
2021/03/06 09:59:52;;;;;;;7.37;1.80;;;;;;;;;;5049357;28;20036;-76
2021/03/06 10:02:22;;;;;;;11.97;2.10;;;;;;;;;;5037818;28;20425;-76
2021/03/06 10:04:49;;;;;;;10.93;2.20;;;;;;;;;;5062401;28;20484;-76
2021/03/06 10:07:14;;;;;;;9.00;2.15;;;;;;;;;;5057739;28;20037;-76
2021/03/06 10:09:39;;;;;;;8.57;1.70;;;;;;;;;;5042183;28;20254;-75
2021/03/06 10:12:09;;;;;;;7.07;2.03;;;;;;;;;;5056764;28;20112;-75
2021/03/06 10:14:35;;;;;;;5.13;1.70;;;;;;;;;;5052812;28;20071;-75
2021/03/06 10:17:01;;;;;;;8.27;1.67;;;;;;;;;;5052602;28;20068;-75
2021/03/06 10:19:27;;;;;;;;;;;;;;;;;;5071339;28;20028;-75
2021/03/06 10:22:06;;;;;;;7.68;2.03;;;;;;;;;;5053941;28;19973;-75
2021/03/06 10:24:32;;;;;;;5.95;1.98;;;;;;;;;;5067678;28;20068;-75
2021/03/06 10:26:58;;;;;;;7.55;2.20;;;;;;;;;;5053930;28;20079;-75
2021/03/06 10:29:24;;;;;;;8.27;2.20;;;;;;;;;;5058343;28;20025;-75
2021/03/06 10:32:08;;;;;;;5.97;1.95;;;;;;;;;;5040022;28;20082;-75
2021/03/06 10:34:34;;;;;;;6.40;1.92;;;;;;;;;;5038837;28;20434;-76
2021/03/06 10:37:16;;;;;;;6.75;1.70;;;;;;;;;;5072648;28;20090;-76
2021/03/06 10:40:02;;;;;;;5.03;1.75;;;;;;;;;;5053326;28;20052;-75
2021/03/06 10:42:44;;;;;;;8.07;1.90;;;;;;;;;;5053433;28;20128;-75
2021/03/06 10:47:51;;;;;;;13.48;2.13;;;;;;;;;;5035966;28;20045;-81
2021/03/06 10:50:40;;;;;;;4.78;1.50;;;;;;;;;;4980146;28;20382;-81
2021/03/06 10:53:19;;;;;;;7.25;1.70;;;;;;;;;;4992913;28;20498;-83
2021/03/06 10:55:45;;;;;;;6.70;2.03;;;;;;;;;;4983669;28;20042;-82
2021/03/06 10:58:11;;;;;;;4.00;1.73;;;;;;;;;;4982230;28;20033;-82
2021/03/06 11:00:37;;;;;;;5.10;1.83;;;;;;;;;;4983710;28;20112;-82
2021/03/06 11:03:03;;;;;;;6.53;1.80;;;;;;;;;;4984120;28;20144;-83
2021/03/06 11:05:29;;;;;;;5.95;1.63;;;;;;;;;;4996432;28;20515;-82
2021/03/06 11:07:55;;;;;;;3.73;1.60;;;;;;;;;;4985201;28;20029;-83
2021/03/06 11:10:21;;;;;;;8.33;1.77;;;;;;;;;;4979135;28;20034;-83
2021/03/06 11:12:56;;;;;;;7.80;1.58;;;;;;;;;;4982527;28;20128;-83
2021/03/06 11:15:24;;;;;;;8.73;1.70;;;;;;;;;;5003376;28;20107;-83
2021/03/06 11:17:51;;;;;;;6.40;1.95;;;;;;;;;;4987316;28;20044;-83
2021/03/06 11:20:17;;;;;;;7.78;1.60;;;;;;;;;;4987148;28;20113;-83
2021/03/06 11:22:42;;;;;;;5.40;2.07;;;;;;;;;;5002359;28;20535;-83
2021/03/06 11:25:09;;;;;;;7.17;1.80;;;;;;;;;;4982320;28;20061;-83
2021/03/06 11:27:48;;;;;;;12.27;1.83;;;;;;;;;;4985140;28;20038;-83
2021/03/06 11:30:14;;;;;;;6.15;1.83;;;;;;;;;;4982327;28;20033;-83
2021/03/06 11:32:40;;;;;;;6.55;1.70;;;;;;;;;;4986830;28;20029;-83
2021/03/06 11:35:06;;;;;;;6.27;1.80;;;;;;;;;;4985348;28;20476;-83
2021/03/06 11:37:31;;;;;;;5.72;1.33;;;;;;;;;;5015969;28;20041;-83
2021/03/06 11:39:57;;;;;;;6.33;1.87;;;;;;;;;;4984511;28;20034;-82
2021/03/06 11:42:22;;;;;;;6.63;1.77;;;;;;;;;;4986466;28;20115;-84
2021/03/06 11:44:47;;;;;;;6.00;1.40;;;;;;;;;;5019140;28;20094;-83
2021/03/06 11:47:13;;;;;;;5.30;1.80;;;;;;;;;;5018937;28;20068;-83
2021/03/06 11:49:38;;;;;;;4.37;1.50;;;;;;;;;;4986690;28;20068;-81
2021/03/06 11:52:05;;;;;;;5.13;1.30;;;;;;;;;;4995964;28;20523;-82
2021/03/06 11:54:30;;;;;;;5.88;1.52;;;;;;;;;;5013766;28;20044;-82
2021/03/06 11:56:56;;;;;;;6.57;1.70;;;;;;;;;;5003742;28;20038;-85
2021/03/06 11:59:24;;;;;;;8.30;1.40;;;;;;;;;;5002265;28;20135;-82
2021/03/06 12:01:49;;;;;;;6.05;1.45;;;;;;;;;;5002532;28;20487;-83
2021/03/06 12:04:15;;;;;;;7.97;1.80;;;;;;;;;;4985738;28;20029;-82
2021/03/06 12:06:40;;;;;;;6.23;1.30;;;;;;;;;;4985712;28;20484;-82
2021/03/06 12:09:06;;;;;;;6.87;1.33;;;;;;;;;;5001786;28;20503;-82
2021/03/06 12:11:32;;;;;;;5.47;1.80;;;;;;;;;;4984846;28;20033;-82
2021/03/06 12:13:58;;;;;;;8.17;1.63;;;;;;;;;;4985146;28;20065;-81
2021/03/06 12:16:23;;;;;;;6.05;2.00;;;;;;;;;;5002507;28;20087;-82
2021/03/06 12:18:48;;;;;;;5.87;1.50;;;;;;;;;;5017859;28;20373;-81
2021/03/06 12:21:14;;;;;;;6.67;1.77;;;;;;;;;;4987461;28;20472;-81
2021/03/06 12:23:39;;;;;;;5.50;1.87;;;;;;;;;;5017763;28;20089;-81
2021/03/06 12:26:04;;;;;;;6.10;2.20;;;;;;;;;;5002351;28;20068;-81
2021/03/06 12:28:30;;;;;;;4.83;2.00;;;;;;;;;;4994353;28;20547;-82
2021/03/06 12:30:55;;;;;;;3.40;1.80;;;;;;;;;;4986671;28;20041;-81
2021/03/06 12:33:20;;;;;;;7.63;1.97;;;;;;;;;;4966148;28;20061;-80
2021/03/06 12:35:46;;;;;;;7.37;1.97;;;;;;;;;;4999899;28;20488;-80
2021/03/06 12:38:11;;;;;;;7.67;2.40;;;;;;;;;;4982510;28;20489;-80
2021/03/06 12:40:36;;;;;;;5.63;2.00;;;;;;;;;;4963020;28;20449;-79
2021/03/06 12:43:02;;;;;;;7.03;2.20;;;;;;;;;;4978973;28;20424;-80
2021/03/06 12:45:27;;;;;;;5.60;1.97;;;;;;;;;;5001043;28;20084;-80
2021/03/06 12:47:53;;;;;;;5.53;2.23;;;;;;;;;;5001453;28;20037;-83
2021/03/06 12:50:18;;;;;;;9.73;2.17;;;;;;;;;;5001087;28;20120;-80
2021/03/06 12:52:44;;;;;;;4.53;2.07;;;;;;;;;;5017479;28;20462;-80
2021/03/06 12:55:09;;;;;;;5.27;1.90;;;;;;;;;;4999796;28;20040;-80
2021/03/06 12:57:35;;;;;;;6.03;2.00;;;;;;;;;;5017602;28;20039;-80
2021/03/06 13:00:00;;;;;;;6.53;1.93;;;;;;;;;;4996370;28;20040;-80
2021/03/06 13:02:26;;;;;;;4.17;1.53;;;;;;;;;;4984590;28;20057;-80
2021/03/06 13:04:51;;;;;;;4.90;1.50;;;;;;;;;;5000508;28;20128;-80
2021/03/06 13:07:16;;;;;;;5.27;1.70;;;;;;;;;;5000673;28;20060;-80
2021/03/06 13:09:42;;;;;;;6.83;2.03;;;;;;;;;;4965257;28;20038;-81
2021/03/06 13:12:07;;;;;;;4.80;1.90;;;;;;;;;;5008390;28;20072;-80
2021/03/06 13:14:33;;;;;;;4.00;1.60;;;;;;;;;;5017673;28;20048;-79
2021/03/06 13:16:58;;;;;;;4.07;1.67;;;;;;;;;;4996077;28;20165;-80
2021/03/06 13:19:23;;;;;;;4.37;1.70;;;;;;;;;;5014121;28;20061;-81
2021/03/06 13:21:49;;;;;;;4.40;2.00;;;;;;;;;;5016005;28;20069;-81
2021/03/06 13:24:14;;;;;;;3.40;1.50;;;;;;;;;;4981405;28;20062;-81
2021/03/06 13:26:40;;;;;;;8.20;1.50;;;;;;;;;;5014962;28;20631;-82
2021/03/06 13:29:05;;;;;;;7.50;2.00;;;;;;;;;;4994587;28;20065;-82
2021/03/06 13:31:30;;;;;;;4.10;1.63;;;;;;;;;;4985361;28;20080;-82
2021/03/06 13:33:56;;;;;;;5.13;1.77;;;;;;;;;;5004835;28;20037;-81
2021/03/06 13:36:22;;;;;;;5.67;1.70;;;;;;;;;;5014610;28;20066;-82
2021/03/06 13:38:47;;;;;;;3.20;1.65;;;;;;;;;;5003954;28;20077;-81
2021/03/06 13:41:13;;;;;;;7.33;1.70;;;;;;;;;;4987443;28;20048;-81
2021/03/06 13:43:38;;;;;;;8.63;1.83;;;;;;;;;;4988327;28;20125;-81
2021/03/06 13:46:03;;;;;;;4.80;1.70;;;;;;;;;;4987940;28;20488;-79
2021/03/06 13:48:29;;;;;;;6.07;1.70;;;;;;;;;;5004479;28;20539;-79
2021/03/06 13:50:54;;;;;;;4.27;1.57;;;;;;;;;;4968110;28;20561;-79
2021/03/06 13:53:20;;;;;;;5.03;1.57;;;;;;;;;;5017679;28;20436;-79
2021/03/06 13:55:45;;;;;;;5.20;1.63;;;;;;;;;;5019875;28;20060;-79
2021/03/06 13:58:11;;;;;;;7.50;1.80;;;;;;;;;;4985307;28;20053;-79
2021/03/06 14:00:36;;;;;;;5.13;1.43;;;;;;;;;;4985307;28;20077;-79
2021/03/06 14:03:01;;;;;;;4.33;1.80;;;;;;;;;;4960757;28;20119;-80
2021/03/06 14:05:27;;;;;;;4.27;1.33;;;;;;;;;;4995290;28;20067;-80
2021/03/06 14:07:52;;;;;;;3.70;1.63;;;;;;;;;;4970780;28;20092;-81
2021/03/06 14:10:19;;;;;;;5.80;1.53;;;;;;;;;;4982387;28;20121;-80
2021/03/06 14:12:45;;;;;;;5.32;1.50;;;;;;;;;;5008011;28;20033;-80
2021/03/06 14:15:10;;;;;;;5.73;1.63;;;;;;;;;;5035354;28;20437;-77
2021/03/06 14:17:37;;;;;;;5.15;1.60;;;;;;;;;;5002347;28;20037;-78
2021/03/06 14:20:03;;;;;;;6.00;1.38;;;;;;;;;;5018306;28;20029;-80
2021/03/06 14:22:28;;;;;;;3.92;1.48;;;;;;;;;;4970675;28;20410;-79
2021/03/06 14:24:54;;;;;;;4.57;1.43;;;;;;;;;;4998327;28;20069;-79
2021/03/06 14:27:19;;;;;;;7.53;1.40;;;;;;;;;;4998406;28;20433;-80
2021/03/06 14:29:44;;;;;;;3.93;1.30;;;;;;;;;;5018826;28;20569;-80
2021/03/06 14:32:10;;;;;;;6.47;1.70;;;;;;;;;;4981203;28;20065;-79
2021/03/06 14:34:35;;;;;;;7.43;1.33;;;;;;;;;;5020226;28;20056;-79
2021/03/06 14:37:01;;;;;;;6.63;1.50;;;;;;;;;;4986575;28;20238;-80
2021/03/06 14:39:26;;;;;;;4.60;1.83;;;;;;;;;;5003691;28;20387;-80
2021/03/06 14:41:51;;;;;;;5.10;1.70;;;;;;;;;;4997006;28;20049;-80
2021/03/06 14:44:17;;;;;;;5.70;1.50;;;;;;;;;;4984597;28;20082;-79
2021/03/06 14:46:42;;;;;;;6.73;1.67;;;;;;;;;;5000395;28;20527;-79
2021/03/06 14:49:07;;;;;;;4.10;1.53;;;;;;;;;;5003247;28;20072;-79
2021/03/06 14:51:33;;;;;;;7.17;1.70;;;;;;;;;;4989567;28;20030;-79